Time;durP1;ratioP1;P1;durP2;ratioP2;P2;SDS_P1;SDS_P2;PMS_P1;PMS_P2;Temp;Humidity;BMP_temperature;BMP_pressure;BME280_temperature;BME280_humidity;BME280_pressure;Samples;Min_cycle;Max_cycle;Signal;HPM_P1;HPM_P2
2022/01/21 00:01:28;;;;;;;9.00;3.90;;;;;;;-1.73;74.87;98357.51;108442;1281;138551;-59
2022/01/21 00:03:56;;;;;;;10.10;5.30;;;;;;;-1.77;74.75;98353.25;108586;1281;22475;-59
2022/01/21 00:06:24;;;;;;;10.70;4.50;;;;;;;-1.81;74.70;98348.56;108509;1281;139144;-59
2022/01/21 00:08:52;;;;;;;13.70;5.20;;;;;;;-1.84;74.69;98354.77;108555;1281;23237;-59
2022/01/21 00:11:22;;;;;;;9.40;4.20;;;;;;;-1.87;74.42;98356.30;108599;1280;22558;-59
2022/01/21 00:13:51;;;;;;;13.50;4.60;;;;;;;-1.91;74.60;98355.25;108501;1281;137853;-58
2022/01/21 00:16:23;;;;;;;14.40;5.50;;;;;;;-1.95;74.64;98359.14;108577;1281;23195;-59
2022/01/21 00:19:07;;;;;;;10.00;4.80;;;;;;;-1.98;74.71;98352.52;108460;1282;138680;-59
2022/01/21 00:30:12;;;;;;;14.60;5.70;;;;;;;-2.05;74.67;98352.91;108486;1281;138419;-59
2022/01/21 00:32:42;;;;;;;10.90;4.60;;;;;;;-2.05;74.75;98350.28;108508;1282;22553;-60
2022/01/21 00:35:11;;;;;;;21.50;7.30;;;;;;;-2.05;74.72;98347.46;108583;1282;23543;-59
2022/01/21 00:37:39;;;;;;;19.40;7.90;;;;;;;-2.06;74.63;98343.27;108465;1281;139027;-59
2022/01/21 00:40:10;;;;;;;23.10;7.90;;;;;;;-2.04;74.59;98344.29;108573;1281;23207;-60
2022/01/21 00:45:11;;;;;;;18.20;6.40;;;;;;;-2.05;74.27;98350.61;108547;1281;22427;-59
2022/01/21 00:47:40;;;;;;;25.70;11.00;;;;;;;-2.11;74.11;98337.52;108562;1281;22461;-59
2022/01/21 00:50:08;;;;;;;15.20;7.20;;;;;;;-2.08;73.95;98340.39;108481;1281;138544;-60
2022/01/21 00:52:37;;;;;;;12.30;5.80;;;;;;;-2.09;73.70;98343.18;108584;1281;22459;-59
2022/01/21 00:55:05;;;;;;;15.40;5.10;;;;;;;-2.10;73.59;98340.96;108323;1283;137957;-60
2022/01/21 00:57:33;;;;;;;20.00;7.60;;;;;;;-2.09;73.49;98344.61;108573;1281;22430;-59
2022/01/21 01:00:04;;;;;;;19.10;7.70;;;;;;;-2.10;73.42;98346.83;108473;1282;138541;-59
2022/01/21 01:02:32;;;;;;;11.90;5.70;;;;;;;-2.08;73.64;98348.40;108515;1281;23589;-57
2022/01/21 01:05:00;;;;;;;13.80;5.20;;;;;;;-2.08;73.32;98356.56;108598;1282;23365;-57
2022/01/21 01:07:29;;;;;;;15.10;6.10;;;;;;;-2.09;73.36;98353.07;108477;1281;137083;-59
2022/01/21 01:09:58;;;;;;;13.80;4.50;;;;;;;-2.10;73.05;98356.27;108465;1282;22687;-60
2022/01/21 01:12:57;;;;;;;11.50;4.80;;;;;;;-2.11;72.85;98355.12;108524;1281;138866;-58
2022/01/21 01:20:59;;;;;;;8.90;4.70;;;;;;;-2.16;72.46;98361.41;108438;1282;23134;-58
2022/01/21 01:23:38;;;;;;;13.10;5.90;;;;;;;-2.19;72.51;98356.83;108582;1281;23385;-57
2022/01/21 01:28:51;;;;;;;11.00;5.00;;;;;;;-2.24;72.39;98359.77;108556;1281;23910;-58
2022/01/21 01:31:19;;;;;;;17.20;4.90;;;;;;;-2.29;71.96;98355.20;108466;1281;139081;-57
2022/01/21 01:33:47;;;;;;;9.20;3.80;;;;;;;-2.30;72.03;98359.09;108567;1282;23848;-58
2022/01/21 01:36:15;;;;;;;10.90;4.40;;;;;;;-2.29;71.81;98361.27;108494;1281;138174;-57
2022/01/21 01:41:17;;;;;;;8.20;3.20;;;;;;;-2.30;71.70;98352.89;108434;1282;22512;-57
2022/01/21 01:51:57;;;;;;;8.40;3.30;;;;;;;-2.35;71.37;98341.50;108478;1282;22557;-57
2022/01/21 01:54:25;;;;;;;10.60;4.30;;;;;;;-2.37;71.15;98338.30;108479;1282;139142;-57
2022/01/21 01:56:56;;;;;;;7.70;3.70;;;;;;;-2.39;70.97;98333.33;108469;1282;22542;-58
2022/01/21 01:59:23;;;;;;;7.90;2.60;;;;;;;-2.42;70.74;98334.46;108470;1282;22553;-58
2022/01/21 02:02:06;;;;;;;9.40;3.70;;;;;;;-2.48;70.74;98320.73;108453;1281;137510;-58
2022/01/21 02:04:34;;;;;;;8.80;3.40;;;;;;;-2.51;70.63;98334.05;108575;1281;22460;-58
2022/01/21 02:07:03;;;;;;;15.00;4.40;;;;;;;-2.54;70.57;98332.37;108520;1281;137474;-58
2022/01/21 02:09:34;;;;;;;8.80;3.80;;;;;;;-2.56;70.56;98330.60;108510;1281;22493;-57
2022/01/21 02:12:03;;;;;;;5.30;3.50;;;;;;;-2.58;70.43;98329.44;108429;1281;137554;-58
2022/01/21 02:14:35;;;;;;;9.90;3.90;;;;;;;-2.62;70.35;98324.62;108605;1282;22465;-57
2022/01/21 02:22:25;;;;;;;8.50;3.60;;;;;;;-2.67;70.17;98319.52;108601;1280;23330;-57
2022/01/21 02:24:57;;;;;;;14.30;4.40;;;;;;;-2.69;70.29;98322.87;108258;1282;137940;-60
2022/01/21 02:27:25;;;;;;;9.10;4.20;;;;;;;-2.68;70.22;98319.27;108426;1282;22286;-59
2022/01/21 02:30:00;;;;;;;7.50;3.80;;;;;;;-2.68;70.18;98321.23;108471;1281;137342;-61
2022/01/21 02:32:29;;;;;;;6.90;3.20;;;;;;;-2.68;70.29;98320.70;108545;1281;22502;-60
2022/01/21 02:34:56;;;;;;;5.50;2.80;;;;;;;-2.67;70.27;98316.31;108473;1282;22526;-60
2022/01/21 02:37:24;;;;;;;6.40;2.80;;;;;;;-2.67;70.31;98315.41;108477;1281;138576;-57
2022/01/21 02:39:52;;;;;;;8.70;4.60;;;;;;;-2.67;70.32;98313.20;107223;1282;25300;-62
2022/01/21 02:42:20;;;;;;;8.40;3.50;;;;;;;-2.66;70.32;98312.88;104362;1282;138430;-63
2022/01/21 02:44:48;;;;;;;7.80;2.90;;;;;;;-2.65;70.37;98306.08;108605;1281;23298;-63
2022/01/21 02:47:17;;;;;;;7.30;3.00;;;;;;;-2.64;70.39;98304.68;108280;1283;22515;-63
2022/01/21 02:49:49;;;;;;;5.40;3.00;;;;;;;-2.63;70.35;98297.99;108379;1281;139454;-63
2022/01/21 02:52:19;;;;;;;6.70;2.90;;;;;;;-2.65;70.21;98296.43;108603;1281;22522;-63
2022/01/21 02:54:47;;;;;;;8.70;3.60;;;;;;;-2.66;70.15;98294.59;108478;1281;137915;-62
2022/01/21 02:57:15;;;;;;;9.00;4.40;;;;;;;-2.67;69.99;98291.55;108651;1281;22525;-63
2022/01/21 02:59:43;;;;;;;5.90;2.80;;;;;;;-2.68;69.91;98284.56;108466;1282;23632;-63
2022/01/21 03:02:12;;;;;;;6.00;3.00;;;;;;;-2.71;69.79;98277.55;108371;1282;137013;-63
2022/01/21 03:04:59;;;;;;;11.40;4.60;;;;;;;-2.73;69.61;98270.38;108616;1281;22481;-63
2022/01/21 03:07:29;;;;;;;9.50;3.60;;;;;;;-2.80;69.57;98267.55;108341;1283;137905;-63
2022/01/21 03:09:57;;;;;;;10.20;4.50;;;;;;;-2.80;69.61;98270.41;108471;1282;23510;-63
2022/01/21 03:12:29;;;;;;;5.20;2.70;;;;;;;-2.84;69.62;98272.89;108311;1282;139015;-63
2022/01/21 03:14:57;;;;;;;6.00;3.00;;;;;;;-2.88;69.69;98273.67;108454;1282;22490;-63
2022/01/21 03:17:25;;;;;;;5.50;2.70;;;;;;;-2.89;69.83;98261.15;108598;1281;23475;-63
2022/01/21 03:19:53;;;;;;;6.50;2.50;;;;;;;-2.90;69.80;98262.09;108342;1282;138131;-63
2022/01/21 03:22:21;;;;;;;6.50;2.60;;;;;;;-2.91;69.75;98254.74;108459;1282;22567;-64
2022/01/21 03:24:49;;;;;;;4.50;2.10;;;;;;;-2.90;69.79;98255.53;108356;1282;137950;-63
2022/01/21 03:27:17;;;;;;;7.70;3.50;;;;;;;-2.92;69.90;98247.98;108470;1281;22585;-64
2022/01/21 03:29:45;;;;;;;5.60;2.50;;;;;;;-2.89;70.30;98252.54;108471;1282;22546;-63
2022/01/21 03:32:13;;;;;;;7.30;3.40;;;;;;;-2.87;70.39;98254.98;108371;1282;138375;-63
2022/01/21 03:34:41;;;;;;;8.40;3.70;;;;;;;-2.86;70.49;98251.41;108584;1281;22472;-63
2022/01/21 03:37:09;;;;;;;6.70;2.80;;;;;;;-2.84;70.74;98245.11;108523;1281;137250;-63
2022/01/21 03:39:38;;;;;;;7.90;2.70;;;;;;;-2.82;70.75;98244.53;107548;1283;24512;-63
2022/01/21 03:42:06;;;;;;;7.90;3.00;;;;;;;-2.82;70.71;98240.96;104039;1283;137635;-64
2022/01/21 03:44:35;;;;;;;4.50;2.70;;;;;;;-2.82;70.65;98239.16;108623;1281;22417;-64
2022/01/21 03:47:04;;;;;;;4.70;2.70;;;;;;;-2.82;70.66;98245.84;108358;1282;22394;-64
2022/01/21 03:49:38;;;;;;;6.70;2.90;;;;;;;-2.84;70.52;98240.67;108480;1281;137893;-64
2022/01/21 03:52:08;;;;;;;7.00;3.10;;;;;;;-2.87;70.76;98236.65;108492;1283;23327;-64
2022/01/21 03:54:36;;;;;;;5.70;2.50;;;;;;;-2.90;70.93;98241.52;108446;1281;137641;-64
2022/01/21 03:57:04;;;;;;;5.60;2.60;;;;;;;-2.92;71.02;98238.23;108495;1282;24443;-64
2022/01/21 03:59:32;;;;;;;6.60;2.80;;;;;;;-2.94;71.14;98237.08;108599;1282;22445;-64
2022/01/21 04:02:01;;;;;;;6.90;2.70;;;;;;;-2.99;71.17;98230.62;108444;1281;139540;-64
2022/01/21 04:04:30;;;;;;;4.80;2.70;;;;;;;-2.98;71.30;98233.20;108481;1282;22290;-65
2022/01/21 04:06:58;;;;;;;3.90;2.60;;;;;;;-3.01;71.39;98231.39;108338;1281;140615;-65
2022/01/21 04:09:27;;;;;;;5.50;2.90;;;;;;;-3.03;71.55;98233.70;108454;1283;22474;-64
2022/01/21 04:11:56;;;;;;;6.60;2.90;;;;;;;-3.04;71.78;98230.67;108312;1282;138019;-63
2022/01/21 04:14:24;;;;;;;6.40;2.90;;;;;;;-3.04;72.01;98225.30;108454;1281;23502;-64
2022/01/21 04:16:54;;;;;;;6.20;2.70;;;;;;;-3.05;72.49;98225.95;108497;1282;22551;-64
2022/01/21 04:19:23;;;;;;;8.00;4.00;;;;;;;-3.06;72.74;98227.88;108350;1283;137367;-63
2022/01/21 04:21:51;;;;;;;7.00;3.50;;;;;;;-3.07;72.92;98230.33;108414;1282;22523;-63
2022/01/21 04:24:19;;;;;;;6.40;3.00;;;;;;;-3.08;73.28;98231.31;108300;1282;138328;-63
2022/01/21 04:26:47;;;;;;;7.70;3.80;;;;;;;-3.09;73.46;98235.73;108605;1281;22476;-63
2022/01/21 04:29:15;;;;;;;6.70;3.10;;;;;;;-3.12;73.70;98229.54;108454;1281;22659;-63
2022/01/21 04:31:47;;;;;;;7.90;3.60;;;;;;;-3.10;74.07;98236.88;108329;1282;139047;-64
2022/01/21 04:34:17;;;;;;;9.40;3.50;;;;;;;-3.10;74.24;98234.13;108439;1281;22861;-64
2022/01/21 04:36:46;;;;;;;8.80;4.30;;;;;;;-3.09;74.49;98230.08;108306;1282;138328;-64
2022/01/21 04:39:21;;;;;;;10.00;3.80;;;;;;;-3.09;74.69;98230.41;108445;1282;22470;-58
2022/01/21 04:47:19;;;;;;;12.30;4.40;;;;;;;-3.03;75.10;98236.57;108457;1282;22425;-58
2022/01/21 04:49:50;;;;;;;9.70;4.10;;;;;;;-3.04;75.45;98230.73;108369;1281;139358;-58
2022/01/21 04:52:21;;;;;;;10.50;4.60;;;;;;;-3.00;75.46;98232.95;108260;1284;23464;-58
2022/01/21 04:54:53;;;;;;;8.50;4.10;;;;;;;-2.99;75.61;98232.05;108292;1282;139757;-58
2022/01/21 04:57:22;;;;;;;11.10;4.20;;;;;;;-2.97;75.79;98231.08;108458;1281;23623;-58
2022/01/21 04:59:50;;;;;;;8.40;4.30;;;;;;;-2.95;75.86;98230.34;108455;1282;23164;-58
2022/01/21 05:02:20;;;;;;;8.60;3.90;;;;;;;-2.94;76.09;98237.44;108365;1282;137672;-58
2022/01/21 05:04:48;;;;;;;7.50;3.60;;;;;;;-2.93;76.27;98233.35;108603;1282;22447;-59
2022/01/21 05:07:20;;;;;;;10.10;3.80;;;;;;;-2.92;76.30;98234.98;108493;1281;138236;-58
2022/01/21 05:09:48;;;;;;;7.90;3.70;;;;;;;-2.90;76.43;98230.69;108488;1282;23024;-58
2022/01/21 05:12:20;;;;;;;8.30;4.10;;;;;;;-2.90;76.35;98226.83;108350;1283;138678;-57
2022/01/21 05:15:15;;;;;;;9.10;3.60;;;;;;;-2.91;76.47;98229.58;108453;1282;23354;-58
2022/01/21 05:17:45;;;;;;;12.00;4.00;;;;;;;-2.93;76.57;98229.77;108466;1281;22417;-58
2022/01/21 05:20:15;;;;;;;7.90;3.80;;;;;;;-2.92;76.68;98230.48;108319;1282;139182;-59
2022/01/21 05:22:44;;;;;;;11.20;4.00;;;;;;;-2.92;76.91;98229.16;108541;1281;22440;-59
2022/01/21 05:25:16;;;;;;;10.60;4.30;;;;;;;-2.92;77.01;98230.92;108491;1281;138987;-58
2022/01/21 05:27:47;;;;;;;6.20;3.10;;;;;;;-2.93;77.28;98226.58;108560;1281;22398;-59
2022/01/21 05:30:15;;;;;;;12.10;3.70;;;;;;;-2.93;77.39;98226.91;108379;1281;139921;-59
2022/01/21 05:32:54;;;;;;;10.50;4.00;;;;;;;-2.88;77.43;98228.78;108492;1281;22445;-59
2022/01/21 05:35:40;;;;;;;8.40;3.40;;;;;;;-2.86;77.66;98233.45;108610;1282;23574;-59
2022/01/21 05:38:33;;;;;;;7.80;3.70;;;;;;;-2.82;77.74;98228.22;108354;1282;137907;-58
2022/01/21 05:41:23;;;;;;;5.10;3.30;;;;;;;-2.81;77.58;98232.52;108693;1281;22474;-59
2022/01/21 05:47:21;;;;;;;7.30;3.90;;;;;;;-2.79;77.83;98238.88;108334;1281;22471;-58
2022/01/21 05:50:20;;;;;;;6.80;3.60;;;;;;;-2.80;78.07;98237.16;108063;1282;138310;-59
2022/01/21 05:53:07;;;;;;;8.10;3.60;;;;;;;-2.81;78.18;98233.92;108619;1281;22420;-59
2022/01/21 05:56:02;;;;;;;8.40;3.50;;;;;;;-2.82;78.33;98237.33;108227;1281;137537;-58
2022/01/21 05:58:34;;;;;;;7.30;3.10;;;;;;;-2.85;78.54;98235.46;108478;1281;23299;-58
2022/01/21 06:01:02;;;;;;;11.90;4.00;;;;;;;-2.86;78.72;98236.86;108509;1281;139688;-58
2022/01/21 06:03:31;;;;;;;6.00;2.90;;;;;;;-2.87;78.80;98239.77;108625;1281;22428;-58
2022/01/21 06:05:59;;;;;;;9.30;4.40;;;;;;;-2.86;78.79;98240.38;108587;1282;22403;-58
2022/01/21 06:08:26;;;;;;;9.20;3.30;;;;;;;-2.93;78.77;98228.73;108381;1281;137790;-58
2022/01/21 06:10:54;;;;;;;5.40;2.80;;;;;;;-2.83;78.65;98245.30;108456;1282;22476;-59
2022/01/21 06:13:31;;;;;;;11.10;2.80;;;;;;;-2.80;78.76;98241.26;108464;1281;139741;-58
2022/01/21 06:15:59;;;;;;;5.00;3.10;;;;;;;-2.77;78.81;98241.64;108549;1281;22571;-59
2022/01/21 06:18:28;;;;;;;8.20;3.30;;;;;;;-2.74;78.89;98245.61;108491;1280;140424;-59
2022/01/21 06:20:56;;;;;;;8.80;3.30;;;;;;;-2.72;78.93;98237.11;108540;1281;22528;-58
2022/01/21 06:23:24;;;;;;;8.90;3.40;;;;;;;-2.69;78.99;98237.60;108509;1281;22445;-58
2022/01/21 06:25:52;;;;;;;8.50;3.70;;;;;;;-2.67;78.93;98236.30;108430;1282;138188;-60
2022/01/21 06:28:19;;;;;;;7.30;3.60;;;;;;;-2.66;78.79;98238.27;108606;1281;22605;-59
2022/01/21 06:30:49;;;;;;;7.20;3.80;;;;;;;-2.65;78.92;98235.20;108424;1281;138423;-59
2022/01/21 06:33:17;;;;;;;7.00;4.00;;;;;;;-2.68;78.80;98233.80;108499;1281;23356;-59
2022/01/21 06:35:45;;;;;;;8.90;3.90;;;;;;;-2.66;78.93;98239.70;109268;1272;22404;-59
2022/01/21 06:38:13;;;;;;;9.60;3.90;;;;;;;-2.65;78.87;98243.36;109138;1273;138608;-58
2022/01/21 06:40:41;;;;;;;6.90;3.80;;;;;;;-2.64;78.89;98239.80;109314;1273;22435;-59
2022/01/21 06:43:09;;;;;;;9.60;4.00;;;;;;;-2.62;78.64;98240.45;109163;1273;137902;-59
2022/01/21 06:45:37;;;;;;;9.80;3.70;;;;;;;-2.60;78.72;98245.02;109192;1274;22459;-58
2022/01/21 06:48:05;;;;;;;7.70;3.90;;;;;;;-2.58;78.62;98243.39;109271;1273;22440;-58
2022/01/21 06:50:34;;;;;;;10.70;4.70;;;;;;;-2.56;78.50;98245.85;109070;1273;138646;-58
2022/01/21 06:53:02;;;;;;;9.00;4.90;;;;;;;-2.54;78.62;98248.39;109301;1273;22411;-59
2022/01/21 06:55:30;;;;;;;9.70;4.50;;;;;;;-2.51;78.60;98249.35;109147;1273;138078;-59
2022/01/21 06:58:04;;;;;;;7.80;3.60;;;;;;;-2.47;78.47;98246.57;109270;1272;22542;-58
2022/01/21 07:00:32;;;;;;;11.80;4.30;;;;;;;-2.46;78.29;98255.02;109180;1273;138179;-58
2022/01/21 07:03:00;;;;;;;9.30;4.70;;;;;;;-2.46;78.29;98249.73;109299;1273;22455;-59
2022/01/21 07:05:31;;;;;;;8.80;4.60;;;;;;;-2.47;78.29;98253.66;109225;1273;22730;-59
2022/01/21 07:08:01;;;;;;;11.70;5.10;;;;;;;-2.47;78.18;98248.23;109186;1273;137727;-59
2022/01/21 07:10:30;;;;;;;10.90;5.20;;;;;;;-2.45;78.02;98252.70;109329;1273;22658;-59
2022/01/21 07:13:04;;;;;;;8.50;4.60;;;;;;;-2.46;78.08;98251.19;109216;1273;137208;-58
2022/01/21 07:15:32;;;;;;;8.60;4.10;;;;;;;-2.46;78.00;98248.09;109319;1273;22498;-60
2022/01/21 07:17:59;;;;;;;11.30;5.20;;;;;;;-2.46;77.93;98246.85;109299;1273;22435;-58
2022/01/21 07:20:28;;;;;;;9.00;4.10;;;;;;;-2.49;77.81;98240.08;109244;1273;138136;-58
2022/01/21 07:22:55;;;;;;;18.20;6.20;;;;;;;-2.47;77.74;98240.16;109247;1273;22578;-58
2022/01/21 07:25:24;;;;;;;8.10;4.30;;;;;;;-2.47;77.74;98248.08;109159;1273;138188;-58
2022/01/21 07:27:51;;;;;;;8.80;4.50;;;;;;;-2.47;77.69;98246.06;109340;1273;22454;-58
2022/01/21 07:30:20;;;;;;;8.90;4.50;;;;;;;-2.46;77.75;98246.69;109196;1273;138054;-58
2022/01/21 07:32:47;;;;;;;15.20;6.20;;;;;;;-2.44;77.80;98248.92;109318;1273;23536;-58
2022/01/21 07:35:16;;;;;;;20.80;7.30;;;;;;;-2.46;77.94;98244.08;109314;1272;22455;-58
2022/01/21 07:38:04;;;;;;;10.80;5.50;;;;;;;-2.41;77.93;98251.66;109236;1273;137352;-58
2022/01/21 07:40:32;;;;;;;24.50;7.40;;;;;;;-2.40;77.78;98252.70;109315;1273;22518;-58
2022/01/21 07:43:00;;;;;;;17.10;6.40;;;;;;;-2.38;77.90;98249.25;109248;1273;138115;-59
2022/01/21 07:45:28;;;;;;;10.30;5.00;;;;;;;-2.37;77.88;98249.09;109292;1273;22454;-58
2022/01/21 07:47:56;;;;;;;11.20;4.60;;;;;;;-2.35;77.87;98250.08;109350;1273;22464;-58
2022/01/21 07:50:23;;;;;;;11.30;4.30;;;;;;;-2.33;77.90;98246.52;109227;1273;140339;-58
2022/01/21 07:52:51;;;;;;;9.60;4.40;;;;;;;-2.31;77.95;98244.36;109304;1273;22430;-58
2022/01/21 07:55:19;;;;;;;14.90;4.90;;;;;;;-2.28;78.04;98243.29;109226;1273;139751;-58
2022/01/21 07:57:47;;;;;;;12.50;4.30;;;;;;;-2.23;78.13;98245.99;109333;1273;23827;-59
2022/01/21 08:00:15;;;;;;;14.80;6.10;;;;;;;-2.18;78.07;98244.92;109252;1273;141387;-58
2022/01/21 08:02:44;;;;;;;7.60;4.40;;;;;;;-2.12;77.97;98247.86;109303;1273;23203;-58
2022/01/21 08:05:12;;;;;;;17.30;6.80;;;;;;;-2.08;77.89;98249.63;109308;1273;22514;-58
2022/01/21 08:07:40;;;;;;;15.30;6.40;;;;;;;-2.02;77.82;98244.23;109240;1273;137698;-58
2022/01/21 08:10:09;;;;;;;17.30;6.30;;;;;;;-1.98;77.88;98241.95;109357;1273;23828;-58
2022/01/21 08:12:37;;;;;;;20.70;7.20;;;;;;;-1.93;77.77;98242.20;109201;1273;138365;-58
2022/01/21 08:15:06;;;;;;;16.80;6.60;;;;;;;-1.90;77.60;98245.68;109357;1273;22479;-57
2022/01/21 08:17:34;;;;;;;13.00;5.90;;;;;;;-1.90;77.48;98243.91;109285;1273;22465;-59
2022/01/21 08:20:02;;;;;;;11.00;4.60;;;;;;;-1.91;77.10;98239.08;109208;1273;138268;-58
2022/01/21 08:22:31;;;;;;;11.90;4.60;;;;;;;-1.93;77.27;98236.52;109368;1273;22429;-58
2022/01/21 08:24:59;;;;;;;17.00;5.70;;;;;;;-1.96;77.65;98243.64;109219;1273;139501;-58
2022/01/21 08:27:27;;;;;;;13.20;6.00;;;;;;;-1.97;77.62;98235.05;109305;1273;22711;-58
2022/01/21 08:29:56;;;;;;;24.10;8.00;;;;;;;-1.96;77.63;98236.00;109279;1273;22453;-58
2022/01/21 08:32:24;;;;;;;9.50;5.10;;;;;;;-1.92;77.36;98234.52;109190;1273;138079;-58
2022/01/21 08:34:52;;;;;;;13.70;5.60;;;;;;;-1.91;76.94;98223.91;109327;1271;22531;-58
2022/01/21 08:37:20;;;;;;;11.10;4.50;;;;;;;-1.81;76.64;98226.80;109187;1273;137876;-58
2022/01/21 08:39:48;;;;;;;14.60;5.60;;;;;;;-1.78;76.49;98229.30;109305;1273;23155;-58
2022/01/21 08:42:16;;;;;;;12.40;5.10;;;;;;;-1.75;76.59;98235.58;109243;1271;139509;-58
2022/01/21 08:44:44;;;;;;;13.30;5.30;;;;;;;-1.75;76.57;98233.32;109285;1273;22883;-59
2022/01/21 08:47:13;;;;;;;17.60;5.50;;;;;;;-1.75;76.51;98235.50;109225;1274;22529;-59
2022/01/21 08:49:41;;;;;;;12.00;5.00;;;;;;;-1.76;76.79;98234.75;109192;1273;138283;-58
2022/01/21 08:52:18;;;;;;;15.70;6.00;;;;;;;-1.76;76.77;98235.83;109278;1273;23198;-58
2022/01/21 08:54:47;;;;;;;23.20;7.70;;;;;;;-1.76;76.93;98240.14;109109;1274;138120;-58
2022/01/21 08:57:15;;;;;;;13.40;5.60;;;;;;;-1.76;77.30;98240.75;109310;1273;22429;-58
2022/01/21 08:59:43;;;;;;;12.60;5.00;;;;;;;-1.76;77.31;98241.46;109304;1273;22397;-58
2022/01/21 09:02:12;;;;;;;8.70;4.40;;;;;;;-1.75;77.48;98238.53;109206;1273;138208;-58
2022/01/21 09:04:41;;;;;;;11.80;4.30;;;;;;;-1.74;77.72;98234.09;109400;1273;22469;-58
2022/01/21 09:07:08;;;;;;;9.40;4.60;;;;;;;-1.71;77.84;98234.43;109173;1273;138835;-58
2022/01/21 09:09:36;;;;;;;11.80;4.90;;;;;;;-1.66;77.90;98233.77;109400;1273;22542;-58
2022/01/21 09:12:04;;;;;;;12.00;4.70;;;;;;;-1.66;77.88;98227.08;109402;1273;23663;-58
2022/01/21 09:14:33;;;;;;;11.10;5.20;;;;;;;-1.61;77.95;98224.64;109209;1273;138710;-58
2022/01/21 09:17:02;;;;;;;10.80;4.30;;;;;;;-1.60;77.80;98223.98;109211;1273;22443;-58
2022/01/21 09:19:32;;;;;;;9.10;4.10;;;;;;;-1.61;77.54;98222.21;109143;1273;138436;-58
2022/01/21 09:22:02;;;;;;;7.80;4.20;;;;;;;-1.63;77.56;98225.87;109279;1273;22554;-58
2022/01/21 09:24:32;;;;;;;8.60;4.30;;;;;;;-1.64;77.50;98222.59;109272;1273;137924;-58
2022/01/21 09:27:01;;;;;;;10.60;4.00;;;;;;;-1.65;77.49;98218.65;109282;1273;22408;-58
2022/01/21 09:29:29;;;;;;;11.50;5.20;;;;;;;-1.68;77.36;98215.08;108999;1273;345222;-58
2022/01/21 09:32:53;;;;;;;8.50;4.00;;;;;;;-1.65;77.19;98209.20;100820;1317;565030;-59
2022/01/21 09:35:22;;;;;;;7.90;3.80;;;;;;;-1.66;77.37;98206.86;103090;1294;25662;-58
2022/01/21 09:37:50;;;;;;;7.70;3.70;;;;;;;-1.65;76.89;98203.86;107106;1292;139039;-59
2022/01/21 09:40:46;;;;;;;7.00;3.60;;;;;;;-1.66;76.85;98202.17;104818;1293;25478;-57
2022/01/21 09:43:15;;;;;;;9.20;4.50;;;;;;;-1.66;77.06;98206.73;103215;1293;138623;-57
2022/01/21 09:45:51;;;;;;;8.30;3.30;;;;;;;-1.66;77.11;98205.71;103079;1291;141409;-58
2022/01/21 09:48:25;;;;;;;7.00;3.40;;;;;;;-1.67;77.28;98210.73;107488;1290;23341;-57
2022/01/21 09:50:55;;;;;;;8.90;3.80;;;;;;;-1.68;77.43;98204.27;107577;1289;137745;-57
2022/01/21 09:53:26;;;;;;;15.60;5.10;;;;;;;-1.69;77.78;98206.17;107390;1290;23270;-58
2022/01/21 09:56:01;;;;;;;10.10;4.50;;;;;;;-1.71;77.78;98210.57;107608;1289;136730;-58
2022/01/21 09:58:29;;;;;;;7.30;4.10;;;;;;;-1.76;78.16;98204.06;107641;1290;22444;-58
2022/01/21 10:00:59;;;;;;;9.40;3.90;;;;;;;-1.78;78.42;98200.30;107533;1290;138115;-57
2022/01/21 10:03:27;;;;;;;12.20;4.70;;;;;;;-1.80;78.79;98207.08;107646;1290;22452;-57
2022/01/21 10:05:56;;;;;;;10.80;5.30;;;;;;;-1.83;79.08;98207.91;107661;1289;22473;-58
2022/01/21 10:08:24;;;;;;;10.00;4.40;;;;;;;-1.87;79.51;98206.70;107286;1290;138726;-58
2022/01/21 10:10:52;;;;;;;8.50;4.20;;;;;;;-1.90;79.67;98206.02;107678;1289;23331;-59
2022/01/21 10:13:22;;;;;;;11.50;4.20;;;;;;;-1.93;80.00;98206.77;107552;1290;138081;-58
2022/01/21 10:15:51;;;;;;;10.00;4.30;;;;;;;-1.95;80.22;98204.05;107646;1290;22450;-57
2022/01/21 10:18:20;;;;;;;12.10;4.90;;;;;;;-1.96;80.58;98199.25;107651;1289;22476;-58
2022/01/21 10:21:00;;;;;;;11.80;4.20;;;;;;;-1.97;80.78;98198.63;107545;1289;137455;-58
2022/01/21 10:23:29;;;;;;;8.70;4.70;;;;;;;-1.96;81.07;98197.23;107660;1289;22477;-58
2022/01/21 10:26:09;;;;;;;12.50;4.50;;;;;;;-1.94;81.19;98196.50;107593;1289;137686;-58
2022/01/21 10:28:38;;;;;;;12.30;5.50;;;;;;;-1.93;81.39;98192.55;107680;1290;22489;-58
2022/01/21 10:31:27;;;;;;;8.50;4.50;;;;;;;-1.93;81.30;98191.65;107554;1289;138380;-58
2022/01/21 10:33:59;;;;;;;10.30;4.50;;;;;;;-1.93;81.41;98189.47;107659;1289;22499;-58
2022/01/21 10:36:29;;;;;;;12.50;5.30;;;;;;;-1.94;81.36;98181.20;107642;1289;22529;-58
2022/01/21 10:39:09;;;;;;;16.20;5.50;;;;;;;-1.93;81.59;98187.75;107491;1290;137466;-58
2022/01/21 10:41:41;;;;;;;17.20;6.20;;;;;;;-1.94;81.73;98188.95;103564;1290;25484;-57
2022/01/21 10:44:14;;;;;;;11.40;5.40;;;;;;;-1.93;81.94;98183.36;103388;1289;137137;-58
2022/01/21 10:46:47;;;;;;;12.20;6.10;;;;;;;-1.91;82.08;98187.98;103500;1291;25433;-58
2022/01/21 10:49:15;;;;;;;18.30;6.80;;;;;;;-1.90;82.18;98189.47;103343;1290;138348;-57
2022/01/21 10:51:50;;;;;;;10.50;4.80;;;;;;;-1.91;82.07;98194.60;103441;1290;24335;-58
2022/01/21 10:54:20;;;;;;;12.40;5.90;;;;;;;-1.92;82.20;98188.00;107707;1289;22952;-58
2022/01/21 10:57:03;;;;;;;9.40;4.50;;;;;;;-1.91;82.37;98187.66;107580;1288;137974;-58
2022/01/21 10:59:46;;;;;;;12.80;4.50;;;;;;;-1.91;82.12;98188.90;107682;1289;22504;-58
2022/01/21 11:02:15;;;;;;;13.50;4.60;;;;;;;-1.90;82.01;98183.64;107960;1286;138628;-58
2022/01/21 11:04:44;;;;;;;16.40;5.80;;;;;;;-1.90;81.99;98189.80;108068;1286;23212;-58
2022/01/21 11:07:15;;;;;;;10.20;4.70;;;;;;;-1.87;81.96;98190.34;107949;1286;139091;-58
2022/01/21 11:09:49;;;;;;;13.00;4.90;;;;;;;-1.85;82.07;98192.05;108051;1285;23259;-58
2022/01/21 11:12:17;;;;;;;14.60;6.00;;;;;;;-1.82;82.21;98195.05;108032;1286;22448;-58
2022/01/21 11:15:01;;;;;;;11.70;6.30;;;;;;;-1.81;82.12;98195.63;107920;1286;140585;-57
2022/01/21 11:17:30;;;;;;;11.10;4.60;;;;;;;-1.80;82.24;98187.77;108050;1286;22473;-58
2022/01/21 11:20:06;;;;;;;11.40;4.40;;;;;;;-1.79;82.36;98188.77;107743;1287;137765;-59
2022/01/21 11:22:54;;;;;;;19.00;6.40;;;;;;;-1.81;81.90;98181.17;108050;1286;22611;-58
2022/01/21 11:25:44;;;;;;;19.30;7.10;;;;;;;-1.86;81.66;98185.38;107992;1286;138855;-58
2022/01/21 11:28:13;;;;;;;15.50;6.00;;;;;;;-1.90;81.74;98186.97;108066;1286;22462;-58
2022/01/21 11:30:41;;;;;;;10.40;4.30;;;;;;;-1.92;81.49;98189.27;107968;1286;137375;-58
2022/01/21 11:33:09;;;;;;;24.80;8.10;;;;;;;-1.93;81.63;98188.70;107954;1287;22594;-58
2022/01/21 11:35:36;;;;;;;16.70;5.60;;;;;;;-1.94;81.19;98180.04;108061;1286;23248;-58
2022/01/21 11:38:06;;;;;;;29.90;5.90;;;;;;;-1.96;80.83;98188.49;107938;1286;139489;-58
2022/01/21 11:40:33;;;;;;;8.60;3.70;;;;;;;-1.99;80.71;98187.84;108404;1282;22523;-57
2022/01/21 11:43:02;;;;;;;16.40;6.30;;;;;;;-2.00;80.45;98189.44;108250;1283;138415;-58
2022/01/21 11:51:07;;;;;;;;;;;;;;;-2.04;81.34;98192.48;108119;1284;138410;-58
2022/01/21 11:53:45;;;;;;;11.70;4.00;;;;;;;-2.04;81.43;98187.71;108236;1282;23174;-58
2022/01/21 11:56:36;;;;;;;23.10;6.30;;;;;;;-2.04;81.22;98183.98;108315;1283;138748;-58
2022/01/21 11:59:39;;;;;;;12.20;4.90;;;;;;;-2.03;81.37;98183.16;108270;1283;23650;-57
2022/01/21 12:02:12;;;;;;;15.10;5.50;;;;;;;-2.02;81.20;98184.20;108116;1284;137825;-58
2022/01/21 12:04:42;;;;;;;18.60;6.20;;;;;;;-2.00;81.08;98182.38;108325;1284;23357;-58
2022/01/21 12:07:59;;;;;;;37.30;7.70;;;;;;;-1.98;81.01;98175.90;108286;1282;138829;-58
2022/01/21 12:10:23;;;;;;;24.30;6.50;;;;;;;-1.95;80.23;98176.87;108326;1284;23458;-58
2022/01/21 12:13:08;;;;;;;21.70;6.50;;;;;;;-1.93;79.42;98177.28;108345;1282;137693;-58
2022/01/21 12:20:44;;;;;;;34.70;9.10;;;;;;;-1.85;78.25;98163.96;108221;1284;137796;-58
2022/01/21 12:23:15;;;;;;;18.00;5.00;;;;;;;-1.85;77.56;98169.67;108312;1283;23326;-58
2022/01/21 12:26:11;;;;;;;22.60;7.60;;;;;;;-1.83;77.25;98169.52;108186;1284;138256;-58
2022/01/21 12:28:43;;;;;;;20.60;6.30;;;;;;;-1.81;76.97;98175.21;108421;1282;22457;-59
2022/01/21 12:31:15;;;;;;;18.50;4.80;;;;;;;-1.80;76.89;98178.30;108262;1282;138487;-58